createdAt,value
2023-01-17T00:00:42.739Z,63.74
2023-01-17T00:03:10.413Z,61.82
2023-01-17T00:05:59.855Z,62.57
2023-01-17T00:08:50.438Z,63.04
2023-01-17T00:11:18.073Z,62.26
2023-01-17T00:13:45.690Z,62.41
2023-01-17T00:16:13.188Z,62.88
2023-01-17T00:19:00.713Z,62.13
2023-01-17T00:21:46.851Z,61.93
2023-01-17T00:24:32.165Z,62.46
2023-01-17T00:27:16.614Z,61.65
2023-01-17T00:29:43.109Z,63.38
2023-01-17T00:32:09.533Z,64.64
2023-01-17T00:34:35.939Z,65.46
2023-01-17T00:37:03.731Z,67.46
2023-01-17T00:39:30.194Z,67.30
2023-01-17T00:41:56.599Z,67.86
2023-01-17T00:44:41.532Z,67.55
2023-01-17T00:47:27.035Z,68.06
2023-01-17T00:50:12.205Z,68.55
2023-01-17T00:52:58.775Z,68.63
2023-01-17T00:55:44.159Z,69.40
2023-01-17T00:58:29.337Z,69.18
2023-01-17T01:01:14.707Z,70.10
2023-01-17T01:03:59.745Z,69.67
2023-01-17T01:06:44.653Z,69.66
2023-01-17T01:09:31.492Z,70.40
2023-01-17T01:12:16.849Z,70.78
2023-01-17T01:15:02.297Z,70.82
2023-01-17T01:17:47.508Z,70.54
2023-01-17T01:20:32.707Z,70.64
2023-01-17T01:23:22.664Z,70.21
2023-01-17T01:26:09.137Z,70.28
2023-01-17T01:28:54.496Z,70.59
2023-01-17T01:31:39.964Z,70.78
2023-01-17T01:34:07.527Z,70.79
2023-01-17T01:36:35.038Z,70.88
2023-01-17T01:39:02.527Z,71.13
2023-01-17T01:41:31.316Z,71.25
2023-01-17T01:43:58.826Z,71.41
2023-01-17T01:46:31.344Z,71.90
2023-01-17T01:49:02.572Z,72.46
2023-01-17T01:51:34.413Z,72.32
2023-01-17T01:54:07.040Z,72.34
2023-01-17T01:56:36.537Z,72.02
2023-01-17T01:59:08.051Z,72.13
2023-01-17T02:01:35.663Z,71.79
2023-01-17T02:04:04.156Z,72.14
2023-01-17T02:06:35.120Z,71.09
2023-01-17T02:09:07.106Z,70.75
2023-01-17T02:11:38.174Z,71.29
2023-01-17T02:14:06.417Z,71.52
2023-01-17T02:16:48.508Z,71.93
2023-01-17T02:19:58.441Z,70.96
2023-01-17T02:22:55.241Z,72.80
2023-01-17T02:25:48.386Z,72.16
2023-01-17T02:28:34.352Z,70.37
2023-01-17T02:31:12.393Z,72.63
2023-01-17T02:33:47.692Z,72.22
2023-01-17T02:36:23.088Z,72.51
2023-01-17T02:38:56.859Z,71.90
2023-01-17T02:41:30.458Z,72.89
2023-01-17T02:43:57.975Z,71.58
2023-01-17T02:46:26.805Z,72.94
2023-01-17T02:48:56.940Z,72.33
2023-01-17T02:51:48.495Z,72.69
2023-01-17T02:54:35.298Z,74.15
2023-01-17T02:57:18.993Z,72.75
2023-01-17T02:59:54.664Z,72.93
2023-01-17T03:02:31.353Z,73.46
2023-01-17T03:05:04.715Z,73.57
2023-01-17T03:07:34.091Z,72.11
2023-01-17T03:10:04.590Z,71.91
2023-01-17T03:12:34.608Z,70.57
2023-01-17T03:15:02.230Z,69.88
2023-01-17T03:17:33.532Z,69.90
2023-01-17T03:20:01.062Z,71.37
2023-01-17T03:22:28.549Z,70.98
2023-01-17T03:24:56.046Z,70.68
2023-01-17T03:27:23.586Z,71.23
2023-01-17T03:29:51.117Z,69.92
2023-01-17T03:32:18.682Z,70.91
2023-01-17T03:34:47.532Z,70.75
2023-01-17T03:37:15.047Z,69.74
2023-01-17T03:39:42.516Z,70.32
2023-01-17T03:42:09.967Z,70.62
2023-01-17T03:44:37.558Z,70.87
2023-01-17T03:47:05.220Z,71.69
2023-01-17T03:49:32.718Z,70.62
2023-01-17T03:52:01.598Z,68.77
2023-01-17T03:54:29.076Z,69.22
2023-01-17T03:56:56.563Z,68.75
2023-01-17T03:59:24.086Z,68.47
2023-01-17T04:01:51.654Z,69.66
2023-01-17T04:04:19.146Z,68.38
2023-01-17T04:06:47.955Z,69.32
2023-01-17T04:09:16.897Z,69.03
2023-01-17T04:11:44.648Z,68.84
2023-01-17T04:14:12.205Z,70.61
2023-01-17T04:16:39.863Z,69.72
2023-01-17T04:19:07.413Z,69.31
2023-01-17T04:21:34.904Z,68.37
2023-01-17T04:24:02.404Z,70.29
2023-01-17T04:26:31.260Z,70.40
2023-01-17T04:28:58.757Z,69.24
2023-01-17T04:31:26.371Z,69.27
2023-01-17T04:33:53.951Z,70.43
2023-01-17T04:36:21.491Z,70.59
2023-01-17T04:38:49.101Z,70.38
2023-01-17T04:41:16.682Z,69.74
2023-01-17T04:43:45.589Z,70.90
2023-01-17T04:46:13.261Z,70.62
2023-01-17T04:48:40.854Z,70.62
2023-01-17T04:51:08.412Z,70.15
2023-01-17T04:53:36.133Z,69.89
2023-01-17T04:56:03.904Z,69.67
2023-01-17T04:58:33.283Z,69.96
2023-01-17T05:01:04.416Z,70.66
2023-01-17T05:03:32.485Z,70.64
2023-01-17T05:06:00.002Z,70.52
2023-01-17T05:08:27.662Z,70.63
2023-01-17T05:10:55.311Z,71.14
2023-01-17T05:13:22.844Z,70.64
2023-01-17T05:15:50.776Z,71.99
2023-01-17T05:18:20.095Z,71.95
2023-01-17T05:20:47.751Z,70.25
2023-01-17T05:23:15.274Z,70.45
2023-01-17T05:25:44.247Z,71.22
2023-01-17T05:28:12.666Z,70.91
2023-01-17T05:30:40.217Z,71.10
2023-01-17T05:33:09.339Z,70.88
2023-01-17T05:35:38.888Z,71.59
2023-01-17T05:38:06.417Z,70.45
2023-01-17T05:40:34.683Z,70.77
2023-01-17T05:43:03.988Z,70.84
2023-01-17T05:45:33.365Z,71.39
2023-01-17T05:48:01.633Z,72.78
2023-01-17T05:50:32.128Z,72.95
2023-01-17T05:53:03.236Z,72.53
2023-01-17T05:55:31.370Z,72.93
2023-01-17T05:57:59.169Z,73.08
2023-01-17T06:00:26.976Z,74.67
2023-01-17T06:02:55.711Z,74.94
2023-01-17T06:05:23.933Z,73.92
2023-01-17T06:07:51.449Z,73.67
2023-01-17T06:10:22.109Z,73.20
2023-01-17T06:12:50.033Z,72.58
2023-01-17T06:15:19.166Z,72.21
2023-01-17T06:17:46.685Z,71.81
2023-01-17T06:20:14.220Z,71.28
2023-01-17T06:22:41.806Z,71.57
2023-01-17T06:25:10.136Z,71.57
2023-01-17T06:27:39.068Z,71.49
2023-01-17T06:30:08.170Z,71.28
2023-01-17T06:32:35.675Z,71.80
2023-01-17T06:35:03.206Z,71.78
2023-01-17T06:37:30.665Z,71.92
2023-01-17T06:39:58.161Z,72.60
2023-01-17T06:42:25.649Z,72.59
2023-01-17T06:44:55.512Z,73.12
2023-01-17T06:47:23.952Z,72.71
2023-01-17T06:49:51.406Z,72.66
2023-01-17T06:52:18.892Z,73.85
2023-01-17T06:54:46.374Z,73.13
2023-01-17T06:57:13.889Z,72.56
2023-01-17T06:59:41.409Z,72.70
2023-01-17T07:02:12.419Z,72.64
2023-01-17T07:04:39.948Z,73.77
2023-01-17T07:07:07.411Z,72.74
2023-01-17T07:09:35.106Z,72.43
2023-01-17T07:12:02.796Z,72.07
2023-01-17T07:14:30.606Z,71.75
2023-01-17T07:16:58.588Z,71.70
2023-01-17T07:19:27.392Z,71.71
2023-01-17T07:21:55.372Z,71.78
2023-01-17T07:24:23.313Z,71.30
2023-01-17T07:26:51.314Z,71.18
2023-01-17T07:29:19.400Z,71.05
2023-01-17T07:31:46.899Z,71.23
2023-01-17T07:34:14.467Z,70.76
2023-01-17T07:36:43.612Z,70.64
2023-01-17T07:39:11.265Z,70.60
2023-01-17T07:41:46.407Z,70.33
2023-01-17T07:44:15.524Z,70.02
2023-01-17T07:46:43.253Z,69.94
2023-01-17T07:49:10.914Z,69.24
2023-01-17T07:51:38.450Z,69.06
2023-01-17T07:54:07.577Z,69.06
2023-01-17T07:56:35.503Z,68.75
2023-01-17T07:59:03.016Z,68.51
2023-01-17T08:01:30.759Z,68.74
2023-01-17T08:03:58.451Z,68.09
2023-01-17T08:06:27.660Z,67.87
2023-01-17T08:08:57.054Z,67.80
2023-01-17T08:11:26.297Z,67.78
2023-01-17T08:13:57.412Z,67.84
2023-01-17T08:16:25.561Z,67.40
2023-01-17T08:18:53.334Z,67.25
2023-01-17T08:21:20.891Z,66.69
2023-01-17T08:23:49.457Z,66.71
2023-01-17T08:26:21.292Z,67.16
2023-01-17T08:28:50.804Z,66.60
2023-01-17T08:31:19.821Z,66.49
2023-01-17T08:33:47.395Z,65.80
2023-01-17T08:36:14.933Z,65.70
2023-01-17T08:38:42.405Z,65.31
2023-01-17T08:41:09.904Z,65.64
2023-01-17T08:43:37.431Z,65.59
2023-01-17T08:46:06.507Z,65.62
2023-01-17T08:48:34.226Z,65.86
2023-01-17T08:51:02.480Z,67.69
2023-01-17T08:53:30.242Z,67.80
2023-01-17T08:56:00.790Z,68.84
2023-01-17T08:58:30.730Z,66.90
2023-01-17T09:01:01.031Z,65.23
2023-01-17T09:03:30.140Z,64.14
2023-01-17T09:06:05.482Z,63.12
2023-01-17T09:08:33.574Z,65.13
2023-01-17T09:11:04.161Z,63.69
2023-01-17T09:13:31.774Z,63.22
2023-01-17T09:15:59.734Z,62.90
2023-01-17T09:18:27.822Z,62.87
2023-01-17T09:20:59.262Z,62.48
2023-01-17T09:23:28.909Z,62.64
2023-01-17T09:25:57.418Z,64.21
2023-01-17T09:28:25.537Z,63.84
2023-01-17T09:30:53.599Z,64.04
2023-01-17T09:33:23.163Z,63.32
2023-01-17T09:35:50.933Z,63.45
2023-01-17T09:38:21.680Z,62.23
2023-01-17T09:40:49.623Z,61.48
2023-01-17T09:43:25.439Z,60.11
2023-01-17T09:45:53.279Z,61.09
2023-01-17T09:48:29.285Z,59.89
2023-01-17T09:51:01.119Z,59.14
2023-01-17T09:53:35.270Z,58.68
2023-01-17T09:56:08.381Z,58.84
2023-01-17T09:58:43.971Z,60.77
2023-01-17T10:01:20.084Z,58.48
2023-01-17T10:04:04.754Z,57.37
2023-01-17T10:06:54.801Z,57.17
2023-01-17T10:09:37.576Z,59.47
2023-01-17T10:12:19.770Z,56.12
2023-01-17T10:15:17.055Z,54.98
2023-01-17T10:17:54.468Z,55.58
2023-01-17T10:20:43.408Z,53.89
2023-01-17T10:23:29.929Z,52.42
2023-01-17T10:26:02.863Z,54.12
2023-01-17T10:28:39.126Z,51.58
2023-01-17T10:31:11.320Z,54.04
2023-01-17T10:33:44.801Z,49.23
2023-01-17T10:36:20.531Z,48.12
2023-01-17T10:38:50.141Z,48.31
2023-01-17T10:41:25.130Z,46.03
2023-01-17T10:44:00.439Z,44.91
2023-01-17T10:46:34.290Z,44.36
2023-01-17T10:49:03.677Z,44.19
2023-01-17T10:51:59.782Z,41.27
2023-01-17T10:54:45.534Z,41.76
2023-01-17T10:57:18.536Z,42.32
2023-01-17T10:59:46.040Z,42.30
2023-01-17T11:02:21.064Z,39.64
2023-01-17T11:04:52.066Z,40.52
2023-01-17T11:07:21.801Z,40.58
2023-01-17T11:09:51.306Z,39.70
2023-01-17T11:12:25.310Z,38.36
2023-01-17T11:14:59.542Z,38.77
2023-01-17T11:17:27.923Z,43.18
2023-01-17T11:20:06.690Z,39.13
2023-01-17T11:22:34.371Z,38.59
2023-01-17T11:25:02.524Z,42.95
2023-01-17T11:27:33.703Z,39.21
2023-01-17T11:30:15.765Z,36.22
2023-01-17T11:32:52.939Z,41.22
2023-01-17T11:35:25.369Z,38.40
2023-01-17T11:37:59.095Z,35.42
2023-01-17T11:40:29.965Z,35.92
2023-01-17T11:43:04.908Z,36.15
2023-01-17T11:45:33.947Z,36.18
2023-01-17T11:48:13.228Z,35.81
2023-01-17T11:50:42.769Z,36.12
2023-01-17T11:53:19.733Z,32.73
2023-01-17T11:56:03.810Z,32.51
2023-01-17T11:58:34.668Z,32.79
2023-01-17T12:01:27.085Z,33.41
2023-01-17T12:04:22.986Z,32.80
2023-01-17T12:07:03.203Z,33.54
2023-01-17T12:09:40.753Z,32.66
2023-01-17T12:12:34.999Z,36.99
2023-01-17T12:15:16.564Z,33.07
2023-01-17T12:17:58.266Z,32.47
2023-01-17T12:20:33.803Z,32.82
2023-01-17T12:23:22.667Z,32.48
2023-01-17T12:26:01.670Z,32.52
2023-01-17T12:28:50.748Z,36.38
2023-01-17T12:31:30.539Z,32.45
2023-01-17T12:34:07.037Z,33.40
2023-01-17T12:36:43.669Z,33.22
2023-01-17T12:39:14.277Z,34.56
2023-01-17T12:41:56.621Z,34.13
2023-01-17T12:44:36.855Z,34.84
2023-01-17T12:47:07.349Z,35.74
2023-01-17T12:49:42.510Z,35.63
2023-01-17T12:52:17.613Z,35.28
2023-01-17T12:54:49.776Z,35.90
2023-01-17T12:57:22.762Z,36.40
2023-01-17T12:59:55.592Z,36.60
2023-01-17T13:02:31.405Z,36.73
2023-01-17T13:05:07.547Z,36.83
2023-01-17T13:07:44.156Z,37.98
2023-01-17T13:10:32.430Z,38.12
2023-01-17T13:13:06.183Z,38.32
2023-01-17T13:15:38.766Z,37.98
2023-01-17T13:18:14.713Z,37.85
2023-01-17T13:20:57.827Z,37.21
2023-01-17T13:23:29.441Z,38.06
2023-01-17T13:25:59.962Z,38.47
2023-01-17T13:28:43.766Z,38.33
2023-01-17T13:31:30.686Z,38.83
2023-01-17T13:34:20.612Z,39.50
2023-01-17T13:37:04.598Z,39.57
2023-01-17T13:39:53.026Z,39.77
2023-01-17T13:42:26.541Z,40.29
2023-01-17T13:44:54.149Z,40.32
2023-01-17T13:47:41.348Z,40.34
2023-01-17T13:50:48.363Z,40.97
2023-01-17T13:53:56.169Z,40.63
2023-01-17T13:56:33.203Z,41.09
2023-01-17T13:59:03.691Z,41.27
2023-01-17T14:01:50.707Z,41.44
2023-01-17T14:04:18.310Z,46.17
2023-01-17T14:06:54.483Z,42.41
2023-01-17T14:09:26.668Z,41.78
2023-01-17T14:12:06.402Z,41.54
2023-01-17T14:14:49.750Z,41.49
2023-01-17T14:17:35.213Z,41.84
2023-01-17T14:20:41.245Z,48.55
2023-01-17T14:23:30.746Z,43.59
2023-01-17T14:26:13.156Z,42.52
2023-01-17T14:28:40.692Z,42.41
2023-01-17T14:31:11.354Z,43.55
2023-01-17T14:33:40.611Z,42.87
2023-01-17T14:36:15.174Z,44.83
2023-01-17T14:38:46.113Z,44.94
2023-01-17T14:41:19.437Z,44.67
2023-01-17T14:43:49.268Z,43.91
2023-01-17T14:46:22.245Z,44.28
2023-01-17T14:48:49.924Z,44.07
2023-01-17T14:51:21.402Z,44.64
2023-01-17T14:53:58.131Z,44.88
2023-01-17T14:56:27.252Z,45.36
2023-01-17T14:59:14.329Z,48.34
2023-01-17T15:01:42.797Z,49.35
2023-01-17T15:04:24.747Z,46.88
2023-01-17T15:06:52.644Z,46.70
2023-01-17T15:09:24.420Z,46.78
2023-01-17T15:11:53.045Z,46.99
2023-01-17T15:14:23.354Z,47.22
2023-01-17T15:16:52.119Z,47.76
2023-01-17T15:19:21.728Z,47.75
2023-01-17T15:21:52.610Z,47.33
2023-01-17T15:24:24.115Z,47.45
2023-01-17T15:26:52.059Z,47.25
2023-01-17T15:29:25.935Z,46.97
2023-01-17T15:31:58.091Z,47.49
2023-01-17T15:34:28.765Z,49.55
2023-01-17T15:36:58.491Z,48.61
2023-01-17T15:39:30.182Z,48.22
2023-01-17T15:41:59.580Z,48.28
2023-01-17T15:44:46.737Z,48.38
2023-01-17T15:47:28.772Z,48.60
2023-01-17T15:49:56.526Z,49.08
2023-01-17T15:52:24.269Z,48.82
2023-01-17T15:54:54.531Z,49.57
2023-01-17T15:57:25.899Z,49.88
2023-01-17T15:59:55.998Z,50.04
2023-01-17T16:02:50.124Z,50.03
2023-01-17T16:05:45.530Z,49.70
2023-01-17T16:08:43.335Z,49.98
2023-01-17T16:11:15.236Z,50.03
2023-01-17T16:16:45.596Z,50.55
2023-01-17T16:19:14.831Z,50.06
2023-01-17T16:21:48.446Z,50.49
2023-01-17T16:24:25.803Z,50.20
2023-01-17T16:26:56.049Z,50.41
2023-01-17T16:29:24.359Z,50.73
2023-01-17T16:31:53.092Z,51.18
2023-01-17T16:34:25.069Z,51.42
2023-01-17T16:37:02.659Z,50.86
2023-01-17T16:39:40.708Z,51.33
2023-01-17T16:42:26.603Z,51.48
2023-01-17T16:45:03.022Z,52.04
2023-01-17T16:47:31.152Z,51.73
2023-01-17T16:50:01.096Z,51.86
2023-01-17T16:52:29.680Z,51.95
2023-01-17T16:55:04.018Z,51.63
2023-01-17T16:57:37.681Z,52.04
2023-01-17T17:00:08.327Z,51.26
2023-01-17T17:02:36.233Z,51.37
2023-01-17T17:05:09.428Z,51.74
2023-01-17T17:07:51.928Z,51.43
2023-01-17T17:10:34.076Z,51.84
2023-01-17T17:13:04.518Z,52.04
2023-01-17T17:15:32.773Z,52.09
2023-01-17T17:18:01.681Z,51.85
2023-01-17T17:20:29.185Z,52.06
2023-01-17T17:22:56.672Z,51.77
2023-01-17T17:25:24.254Z,51.58
2023-01-17T17:27:52.117Z,51.54
2023-01-17T17:30:21.268Z,51.26
2023-01-17T17:32:48.798Z,51.78
2023-01-17T17:35:16.523Z,51.23
2023-01-17T17:37:44.063Z,51.59
2023-01-17T17:40:12.421Z,52.66
2023-01-17T17:42:40.042Z,52.14
2023-01-17T17:45:08.162Z,52.22
2023-01-17T17:47:37.250Z,52.36
2023-01-17T17:50:05.223Z,52.67
2023-01-17T17:52:33.034Z,51.99
2023-01-17T17:55:00.700Z,52.25
2023-01-17T17:57:28.418Z,52.30
2023-01-17T17:59:56.757Z,52.23
2023-01-17T18:02:24.485Z,52.57
2023-01-17T18:04:54.012Z,52.79
2023-01-17T18:07:21.699Z,52.90
2023-01-17T18:09:49.426Z,52.98
2023-01-17T18:12:16.996Z,53.56
2023-01-17T18:14:44.514Z,54.45
2023-01-17T18:17:13.898Z,54.90
2023-01-17T18:19:42.407Z,54.09
2023-01-17T18:22:11.381Z,54.67
2023-01-17T18:24:38.978Z,53.89
2023-01-17T18:27:06.618Z,54.13
2023-01-17T18:29:34.262Z,53.89
2023-01-17T18:32:01.777Z,53.49
2023-01-17T18:34:29.628Z,53.62
2023-01-17T18:36:58.240Z,53.65
2023-01-17T18:39:29.109Z,54.19
2023-01-17T18:41:56.739Z,54.36
2023-01-17T18:44:25.148Z,54.03
2023-01-17T18:46:54.374Z,54.22
2023-01-17T18:49:22.115Z,53.93
2023-01-17T18:51:51.111Z,54.19
2023-01-17T18:54:19.806Z,54.06
2023-01-17T18:56:49.300Z,53.67
2023-01-17T18:59:18.352Z,54.26
2023-01-17T19:01:46.545Z,54.18
2023-01-17T19:04:15.805Z,54.04
2023-01-17T19:06:45.774Z,54.38
2023-01-17T19:09:15.238Z,57.74
2023-01-17T19:11:44.784Z,55.38
2023-01-17T19:14:14.492Z,55.03
2023-01-17T19:16:43.340Z,54.97
2023-01-17T19:19:14.366Z,54.94
2023-01-17T19:21:47.170Z,55.43
2023-01-17T19:24:14.566Z,55.26
2023-01-17T19:26:42.818Z,56.03
2023-01-17T19:29:13.532Z,56.99
2023-01-17T19:31:43.147Z,59.27
2023-01-17T19:34:13.960Z,57.55
2023-01-17T19:36:41.918Z,58.53
2023-01-17T19:39:10.470Z,57.95
2023-01-17T19:41:41.667Z,58.16
2023-01-17T19:44:11.858Z,57.33
2023-01-17T19:46:40.872Z,57.62
2023-01-17T19:49:09.724Z,58.02
2023-01-17T19:51:39.469Z,58.76
2023-01-17T19:54:09.047Z,61.19
2023-01-17T19:56:36.750Z,60.70
2023-01-17T19:59:04.344Z,61.25
2023-01-17T20:01:34.702Z,61.52
2023-01-17T20:04:05.367Z,63.54
2023-01-17T20:06:35.306Z,62.77
2023-01-17T20:09:03.573Z,62.90
2023-01-17T20:11:31.384Z,62.63
2023-01-17T20:14:00.968Z,62.75
2023-01-17T20:16:31.199Z,63.43
2023-01-17T20:19:02.541Z,63.02
2023-01-17T20:21:33.053Z,63.73
2023-01-17T20:24:03.368Z,63.84
2023-01-17T20:26:35.992Z,65.40
2023-01-17T20:29:06.898Z,64.25
2023-01-17T20:31:38.260Z,65.61
2023-01-17T20:34:07.291Z,65.23
2023-01-17T20:36:37.240Z,64.78
2023-01-17T20:39:07.961Z,64.54
2023-01-17T20:44:40.332Z,65.40
2023-01-17T20:47:11.138Z,66.58
2023-01-17T20:49:39.008Z,66.16
2023-01-17T20:52:10.508Z,66.37
2023-01-17T20:54:38.318Z,67.04
2023-01-17T20:57:06.425Z,68.81
2023-01-17T20:59:37.271Z,68.23
2023-01-17T21:02:05.585Z,67.41
2023-01-17T21:04:33.403Z,68.21
2023-01-17T21:07:01.146Z,67.83
2023-01-17T21:09:30.097Z,68.60
2023-01-17T21:12:01.070Z,68.72
2023-01-17T21:14:28.874Z,68.27
2023-01-17T21:16:56.460Z,68.61
2023-01-17T21:19:24.121Z,68.22
2023-01-17T21:21:51.772Z,68.30
2023-01-17T21:24:20.220Z,68.90
2023-01-17T21:26:51.380Z,69.62
2023-01-17T21:29:19.097Z,69.00
2023-01-17T21:31:46.764Z,68.79
2023-01-17T21:34:14.850Z,68.10
2023-01-17T21:36:43.596Z,69.50
2023-01-17T21:39:13.265Z,70.10
2023-01-17T21:41:42.341Z,69.36
2023-01-17T21:44:14.981Z,69.88
2023-01-17T21:46:42.792Z,69.75
2023-01-17T21:49:12.147Z,70.37
2023-01-17T21:51:56.974Z,71.64
2023-01-17T21:54:45.953Z,71.14
2023-01-17T21:57:32.199Z,70.74
2023-01-17T22:00:01.165Z,69.48
2023-01-17T22:02:28.759Z,69.62
2023-01-17T22:04:56.311Z,69.54
2023-01-17T22:07:25.187Z,69.75
2023-01-17T22:09:52.712Z,69.81
2023-01-17T22:12:20.255Z,70.07
2023-01-17T22:14:47.737Z,69.77
2023-01-17T22:17:16.573Z,70.05
2023-01-17T22:19:45.853Z,69.94
2023-01-17T22:22:13.537Z,70.23
2023-01-17T22:24:41.264Z,70.25
2023-01-17T22:27:09.837Z,70.05
2023-01-17T22:29:37.554Z,70.23
2023-01-17T22:32:05.276Z,70.68
2023-01-17T22:34:34.104Z,70.89
2023-01-17T22:37:03.887Z,71.36
2023-01-17T22:39:31.383Z,71.29
2023-01-17T22:41:59.224Z,72.62
2023-01-17T22:44:26.726Z,72.98
2023-01-17T22:46:54.235Z,72.47
2023-01-17T22:49:23.396Z,71.67
2023-01-17T22:51:52.368Z,71.34
2023-01-17T22:54:20.277Z,71.00
2023-01-17T22:56:48.554Z,70.37
2023-01-17T22:59:16.039Z,70.79
2023-01-17T23:01:43.511Z,70.68
2023-01-17T23:04:13.725Z,70.58
2023-01-17T23:06:42.550Z,70.40
2023-01-17T23:09:13.287Z,70.62
2023-01-17T23:11:46.686Z,70.01
2023-01-17T23:14:17.451Z,69.87
2023-01-17T23:17:04.913Z,69.70
2023-01-17T23:19:35.488Z,69.91
2023-01-17T23:22:23.015Z,70.35
2023-01-17T23:24:53.588Z,70.40
2023-01-17T23:27:41.091Z,70.55
2023-01-17T23:30:11.706Z,70.83
2023-01-17T23:32:39.537Z,70.43
2023-01-17T23:35:07.688Z,70.82
2023-01-17T23:37:53.107Z,71.03
2023-01-17T23:40:21.950Z,72.17
2023-01-17T23:43:07.373Z,71.97
2023-01-17T23:45:35.620Z,71.79
2023-01-17T23:48:04.943Z,72.61
2023-01-17T23:50:32.544Z,72.05
2023-01-17T23:53:00.322Z,71.87
2023-01-17T23:55:29.278Z,72.31
2023-01-17T23:57:56.769Z,71.42
